Time;durP1;ratioP1;P1;durP2;ratioP2;P2;SDS_P1;SDS_P2;PMS_P1;PMS_P2;Temp;Humidity;BMP_temperature;BMP_pressure;BME280_temperature;BME280_humidity;BME280_pressure;Samples;Min_cycle;Max_cycle;Signal;HPM_P1;HPM_P2
2024/02/14 00:02:01;;;;;;;;;;;;;;;;;;5036364;28;20571;-67
2024/02/14 00:04:27;;;;;;;;;;;;;;;;;;5042140;28;19925;-67
2024/02/14 00:06:53;;;;;;;;;;;;;;;;;;5037057;28;19925;-66
2024/02/14 00:09:19;;;;;;;;;;;;;;;;;;5039384;28;19921;-66
2024/02/14 00:11:45;;;;;;;;;;;;;;;;;;5043162;28;19939;-66
2024/02/14 00:14:11;;;;;;;;;;;;;;;;;;5048286;28;19925;-66
2024/02/14 00:16:38;;;;;;;;;;;;;;;;;;5044542;28;19928;-66
2024/02/14 00:19:04;;;;;;;;;;;;;;;;;;5045541;28;19928;-66
2024/02/14 00:21:31;;;;;;;;;;;;;;;;;;5038691;28;20378;-66
2024/02/14 00:23:58;;;;;;;;;;;;;;;;;;5037719;28;20287;-66
2024/02/14 00:26:24;;;;;;;;;;;;;;;;;;5042989;28;20015;-66
2024/02/14 00:28:50;;;;;;;;;;;;;;;;;;5033748;28;19963;-67
2024/02/14 00:31:16;;;;;;;;;;;;;;;;;;5040797;28;19964;-66
2024/02/14 00:33:41;;;;;;;;;;;;;;;;;;5049310;28;19963;-66
2024/02/14 00:36:07;;;;;;;;;;;;;;;;;;5038534;28;20390;-66
2024/02/14 00:38:33;;;;;;;;;;;;;;;;;;5041423;28;19956;-66
2024/02/14 00:41:00;;;;;;;;;;;;;;;;;;5034453;28;19968;-66
2024/02/14 00:43:25;;;;;;;;;;;;;;;;;;5033989;28;19979;-66
2024/02/14 00:45:51;;;;;;;;;;;;;;;;;;5050756;28;19925;-66
2024/02/14 00:48:17;;;;;;;;;;;;;;;;;;5050787;28;19929;-66
2024/02/14 00:50:43;;;;;;;;;;;;;;;;;;5037142;28;19943;-67
2024/02/14 00:53:09;;;;;;;;;;;;;;;;;;5046999;28;20363;-67
2024/02/14 00:55:35;;;;;;;;;;;;;;;;;;5041589;28;19948;-66
2024/02/14 00:58:02;;;;;;;;;;;;;;;;;;5035185;28;19932;-66
2024/02/14 01:00:28;;;;;;;;;;;;;;;;;;5035342;28;20433;-66
2024/02/14 01:02:55;;;;;;;;;;;;;;;;;;5038922;28;19999;-66
2024/02/14 01:05:21;;;;;;;;;;;;;;;;;;5049262;28;19943;-66
2024/02/14 01:07:47;;;;;;;;;;;;;;;;;;5038550;28;19925;-66
2024/02/14 01:10:13;;;;;;;;;;;;;;;;;;5035137;28;19925;-67
2024/02/14 01:12:40;;;;;;;;;;;;;;;;;;5036009;28;19924;-66
2024/02/14 01:15:05;;;;;;;;;;;;;;;;;;5042868;28;19974;-66
2024/02/14 01:17:31;;;;;;;;;;;;;;;;;;5043638;28;20023;-66
2024/02/14 01:19:58;;;;;;;;;;;;;;;;;;5047902;28;19999;-66
2024/02/14 01:22:23;;;;;;;;;;;;;;;;;;5046362;28;19921;-66
2024/02/14 01:24:49;;;;;;;;;;;;;;;;;;5042837;28;19931;-66
2024/02/14 01:27:16;;;;;;;;;;;;;;;;;;5043314;28;19929;-66
2024/02/14 01:29:42;;;;;;;;;;;;;;;;;;5042576;28;19921;-66
2024/02/14 01:32:09;;;;;;;;;;;;;;;;;;5045690;28;20247;-67
2024/02/14 01:34:35;;;;;;;;;;;;;;;;;;5047645;28;19925;-66
2024/02/14 01:37:01;;;;;;;;;;;;;;;;;;5035072;28;19925;-66
2024/02/14 01:39:27;;;;;;;;;;;;;;;;;;5043585;28;19960;-66
2024/02/14 01:41:53;;;;;;;;;;;;;;;;;;5046098;28;19968;-67
2024/02/14 01:44:20;;;;;;;;;;;;;;;;;;5044245;28;19921;-67
2024/02/14 01:46:46;;;;;;;;;;;;;;;;;;5047126;28;20385;-67
2024/02/14 01:49:12;;;;;;;;;;;;;;;;;;5049886;28;19925;-67
2024/02/14 01:51:38;;;;;;;;;;;;;;;;;;5040097;28;19975;-67
2024/02/14 01:54:04;;;;;;;;;;;;;;;;;;5039316;28;19991;-65
2024/02/14 01:56:30;;;;;;;;;;;;;;;;;;5036065;28;19932;-65
2024/02/14 01:58:56;;;;;;;;;;;;;;;;;;5046719;28;20328;-65
2024/02/14 02:01:23;;;;;;;;;;;;;;;;;;5041775;28;20006;-66
2024/02/14 02:03:49;;;;;;;;;;;;;;;;;;5041185;28;19959;-65
2024/02/14 02:06:16;;;;;;;;;;;;;;;;;;5051230;28;19948;-66
2024/02/14 02:08:42;;;;;;;;;;;;;;;;;;5044080;28;19929;-66
2024/02/14 02:11:08;;;;;;;;;;;;;;;;;;5042525;28;19987;-66
2024/02/14 02:13:34;;;;;;;;;;;;;;;;;;5039985;28;19987;-65
2024/02/14 02:16:04;;;;;;;;;;;;;;;;;;5050833;28;19931;-65
2024/02/14 02:18:30;;;;;;;;;;;;;;;;;;5040013;28;19968;-66
2024/02/14 02:20:57;;;;;;;;;;;;;;;;;;5037996;28;19972;-66
2024/02/14 02:23:23;;;;;;;;;;;;;;;;;;5042455;28;20538;-66
2024/02/14 02:25:50;;;;;;;;;;;;;;;;;;5035318;28;19981;-66
2024/02/14 02:28:16;;;;;;;;;;;;;;;;;;5041156;28;19928;-67
2024/02/14 02:30:41;;;;;;;;;;;;;;;;;;5045214;28;20275;-66
2024/02/14 02:33:07;;;;;;;;;;;;;;;;;;5046701;28;19970;-66
2024/02/14 02:35:33;;;;;;;;;;;;;;;;;;5033772;28;20007;-66
2024/02/14 02:37:59;;;;;;;;;;;;;;;;;;5048662;28;19971;-66
2024/02/14 02:40:26;;;;;;;;;;;;;;;;;;5042788;28;19987;-66
2024/02/14 02:42:52;;;;;;;;;;;;;;;;;;5043127;28;20571;-67
2024/02/14 02:45:18;;;;;;;;;;;;;;;;;;5047332;28;19921;-66
2024/02/14 02:47:44;;;;;;;;;;;;;;;;;;5046268;28;19933;-67
2024/02/14 02:50:10;;;;;;;;;;;;;;;;;;5050032;28;20333;-66
2024/02/14 02:52:36;;;;;;;;;;;;;;;;;;5039143;28;19921;-66
2024/02/14 02:55:02;;;;;;;;;;;;;;;;;;5051457;28;19947;-66
2024/02/14 02:57:29;;;;;;;;;;;;;;;;;;5043249;28;19932;-66
2024/02/14 02:59:55;;;;;;;;;;;;;;;;;;5051629;28;19947;-66
2024/02/14 03:02:21;;;;;;;;;;;;;;;;;;5051620;28;19925;-66
2024/02/14 03:04:47;;;;;;;;;;;;;;;;;;5038183;28;19929;-66
2024/02/14 03:07:13;;;;;;;;;;;;;;;;;;5031215;28;20367;-66
2024/02/14 03:09:39;;;;;;;;;;;;;;;;;;5035526;28;19921;-66
2024/02/14 03:12:05;;;;;;;;;;;;;;;;;;5031498;28;20382;-66
2024/02/14 03:14:32;;;;;;;;;;;;;;;;;;5036935;28;19931;-65
2024/02/14 03:16:59;;;;;;;;;;;;;;;;;;5034705;28;19970;-67
2024/02/14 03:19:26;;;;;;;;;;;;;;;;;;5050120;28;19924;-66
2024/02/14 03:21:52;;;;;;;;;;;;;;;;;;5048821;28;19932;-66
2024/02/14 03:24:18;;;;;;;;;;;;;;;;;;5050051;28;19921;-66
2024/02/14 03:26:44;;;;;;;;;;;;;;;;;;5037198;28;20326;-66
2024/02/14 03:29:10;;;;;;;;;;;;;;;;;;5047200;28;19932;-66
2024/02/14 03:31:36;;;;;;;;;;;;;;;;;;5049818;28;19928;-66
2024/02/14 03:34:02;;;;;;;;;;;;;;;;;;5051336;28;19971;-66
2024/02/14 03:36:30;;;;;;;;;;;;;;;;;;5048847;28;19960;-66
2024/02/14 03:38:56;;;;;;;;;;;;;;;;;;5049771;28;20012;-66
2024/02/14 03:41:22;;;;;;;;;;;;;;;;;;5051175;28;19924;-66
2024/02/14 03:43:50;;;;;;;;;;;;;;;;;;5035664;28;19928;-66
2024/02/14 03:46:16;;;;;;;;;;;;;;;;;;5054953;28;19927;-66
2024/02/14 03:48:42;;;;;;;;;;;;;;;;;;5038625;28;20011;-67
2024/02/14 03:51:08;;;;;;;;;;;;;;;;;;5035642;28;19921;-65
2024/02/14 03:53:34;;;;;;;;;;;;;;;;;;5054616;28;19924;-66
2024/02/14 03:56:00;;;;;;;;;;;;;;;;;;5040339;28;20003;-66
2024/02/14 03:58:26;;;;;;;;;;;;;;;;;;5048641;28;19924;-66
2024/02/14 04:00:52;;;;;;;;;;;;;;;;;;5043589;28;19936;-66
2024/02/14 04:03:18;;;;;;;;;;;;;;;;;;5036975;28;19962;-66
2024/02/14 04:05:44;;;;;;;;;;;;;;;;;;5051933;28;19925;-66
2024/02/14 04:08:10;;;;;;;;;;;;;;;;;;5038213;28;19933;-66
2024/02/14 04:10:36;;;;;;;;;;;;;;;;;;5037343;28;19928;-65
2024/02/14 04:13:02;;;;;;;;;;;;;;;;;;5053084;28;19929;-65
2024/02/14 04:15:28;;;;;;;;;;;;;;;;;;5050632;28;19928;-65
2024/02/14 04:17:54;;;;;;;;;;;;;;;;;;5040560;28;19932;-67
2024/02/14 04:20:20;;;;;;;;;;;;;;;;;;5049563;28;20437;-67
2024/02/14 04:22:46;;;;;;;;;;;;;;;;;;5046785;28;19921;-66
2024/02/14 04:25:12;;;;;;;;;;;;;;;;;;5050917;28;19921;-66
2024/02/14 04:27:38;;;;;;;;;;;;;;;;;;5045396;28;19944;-66
2024/02/14 04:30:04;;;;;;;;;;;;;;;;;;5036091;28;20248;-66
2024/02/14 04:32:30;;;;;;;;;;;;;;;;;;5041014;28;19921;-67
2024/02/14 04:34:56;;;;;;;;;;;;;;;;;;5034085;28;20347;-67
2024/02/14 04:37:22;;;;;;;;;;;;;;;;;;5041783;28;19932;-66
2024/02/14 04:39:48;;;;;;;;;;;;;;;;;;5041136;28;19921;-66
2024/02/14 04:42:14;;;;;;;;;;;;;;;;;;5040357;28;20010;-66
2024/02/14 04:44:40;;;;;;;;;;;;;;;;;;5035061;28;19921;-66
2024/02/14 04:47:05;;;;;;;;;;;;;;;;;;5039166;28;19929;-66
2024/02/14 04:49:32;;;;;;;;;;;;;;;;;;5040016;28;19927;-66
2024/02/14 04:51:57;;;;;;;;;;;;;;;;;;5039317;28;19928;-66
2024/02/14 04:54:25;;;;;;;;;;;;;;;;;;5040720;28;19924;-66
2024/02/14 04:56:50;;;;;;;;;;;;;;;;;;5046986;28;20256;-66
2024/02/14 04:59:16;;;;;;;;;;;;;;;;;;5036812;28;19928;-66
2024/02/14 05:01:42;;;;;;;;;;;;;;;;;;5049537;28;19924;-66
2024/02/14 05:04:09;;;;;;;;;;;;;;;;;;5037106;28;19927;-66
2024/02/14 05:06:35;;;;;;;;;;;;;;;;;;5040019;28;19929;-67
2024/02/14 05:09:00;;;;;;;;;;;;;;;;;;5043698;28;19956;-65
2024/02/14 05:11:26;;;;;;;;;;;;;;;;;;5038680;28;19925;-66
2024/02/14 05:13:52;;;;;;;;;;;;;;;;;;5048836;28;20310;-66
2024/02/14 05:16:18;;;;;;;;;;;;;;;;;;5047277;28;19924;-66
2024/02/14 05:18:44;;;;;;;;;;;;;;;;;;5048373;28;19940;-66
2024/02/14 05:21:10;;;;;;;;;;;;;;;;;;5051879;28;20321;-66
2024/02/14 05:23:36;;;;;;;;;;;;;;;;;;5045968;28;19928;-66
2024/02/14 05:26:02;;;;;;;;;;;;;;;;;;5033145;28;19921;-66
2024/02/14 05:28:28;;;;;;;;;;;;;;;;;;5040705;28;19929;-66
2024/02/14 05:30:54;;;;;;;;;;;;;;;;;;5042180;28;19947;-66
2024/02/14 05:33:22;;;;;;;;;;;;;;;;;;5023537;28;20295;-66
2024/02/14 05:35:47;;;;;;;;;;;;;;;;;;5045024;28;19928;-66
2024/02/14 05:38:14;;;;;;;;;;;;;;;;;;5039283;28;19921;-66
2024/02/14 05:40:40;;;;;;;;;;;;;;;;;;5049045;28;19925;-66
2024/02/14 05:43:07;;;;;;;;;;;;;;;;;;5036960;28;19921;-66
2024/02/14 05:45:33;;;;;;;;;;;;;;;;;;5040466;28;19924;-66
2024/02/14 05:47:59;;;;;;;;;;;;;;;;;;5042893;28;19929;-66
2024/02/14 05:50:25;;;;;;;;;;;;;;;;;;5046972;28;20390;-66
2024/02/14 05:52:50;;;;;;;;;;;;;;;;;;5046005;28;19966;-66
2024/02/14 05:55:16;;;;;;;;;;;;;;;;;;5047526;28;19978;-66
2024/02/14 05:57:42;;;;;;;;;;;;;;;;;;5032158;28;19929;-66
2024/02/14 06:00:10;;;;;;;;;;;;;;;;;;5043439;28;19920;-66
2024/02/14 06:02:35;;;;;;;;;;;;;;;;;;5038191;28;20012;-66
2024/02/14 06:05:01;;;;;;;;;;;;;;;;;;5050877;28;20323;-66
2024/02/14 06:07:28;;;;;;;;;;;;;;;;;;5039291;28;19925;-66
2024/02/14 06:09:54;;;;;;;;;;;;;;;;;;5043654;28;19929;-66
2024/02/14 06:12:19;;;;;;;;;;;;;;;;;;5050955;28;19925;-67
2024/02/14 06:14:45;;;;;;;;;;;;;;;;;;5047130;28;20007;-67
2024/02/14 06:17:11;;;;;;;;;;;;;;;;;;5042250;28;20413;-66
2024/02/14 06:19:38;;;;;;;;;;;;;;;;;;5033085;28;19925;-66
2024/02/14 06:22:04;;;;;;;;;;;;;;;;;;5046870;28;20419;-66
2024/02/14 06:24:30;;;;;;;;;;;;;;;;;;5049131;28;19971;-66
2024/02/14 06:26:56;;;;;;;;;;;;;;;;;;5048997;28;19929;-66
2024/02/14 06:29:22;;;;;;;;;;;;;;;;;;5042723;28;19928;-66
2024/02/14 06:31:49;;;;;;;;;;;;;;;;;;5036917;28;19928;-66
2024/02/14 06:34:15;;;;;;;;;;;;;;;;;;5045241;28;19929;-66
2024/02/14 06:36:41;;;;;;;;;;;;;;;;;;5037445;28;20378;-66
2024/02/14 06:39:07;;;;;;;;;;;;;;;;;;5048504;28;19966;-67
2024/02/14 06:41:33;;;;;;;;;;;;;;;;;;5043525;28;20003;-66
2024/02/14 06:43:59;;;;;;;;;;;;;;;;;;5038570;28;20045;-65
2024/02/14 06:46:25;;;;;;;;;;;;;;;;;;5040648;28;19964;-65
2024/02/14 06:48:51;;;;;;;;;;;;;;;;;;5044570;28;20894;-66
2024/02/14 06:51:17;;;;;;;;;;;;;;;;;;5033361;28;19978;-65
2024/02/14 06:53:43;;;;;;;;;;;;;;;;;;5031782;28;20379;-65
2024/02/14 06:56:09;;;;;;;;;;;;;;;;;;5037127;28;19925;-66
2024/02/14 06:58:36;;;;;;;;;;;;;;;;;;5041969;28;21597;-66
2024/02/14 07:01:03;;;;;;;;;;;;;;;;;;5032183;28;19924;-66
2024/02/14 07:03:29;;;;;;;;;;;;;;;;;;5044188;28;19924;-66
2024/02/14 07:05:55;;;;;;;;;;;;;;;;;;5046361;28;19925;-66
2024/02/14 07:08:21;;;;;;;;;;;;;;;;;;5036599;28;20338;-66
2024/02/14 07:10:47;;;;;;;;;;;;;;;;;;5040928;28;19944;-66
2024/02/14 07:13:14;;;;;;;;;;;;;;;;;;5041842;28;20282;-66
2024/02/14 07:15:39;;;;;;;;;;;;;;;;;;5046074;28;20340;-65
2024/02/14 07:18:08;;;;;;;;;;;;;;;;;;5047270;28;19933;-66
2024/02/14 07:20:34;;;;;;;;;;;;;;;;;;5036555;28;19976;-66
2024/02/14 07:23:00;;;;;;;;;;;;;;;;;;5046691;28;19968;-66
2024/02/14 07:25:26;;;;;;;;;;;;;;;;;;5048200;28;19921;-66
2024/02/14 07:27:52;;;;;;;;;;;;;;;;;;5045489;28;19987;-65
2024/02/14 07:30:18;;;;;;;;;;;;;;;;;;5047630;28;19976;-66
2024/02/14 07:32:44;;;;;;;;;;;;;;;;;;5047820;28;19921;-66
2024/02/14 07:35:10;;;;;;;;;;;;;;;;;;5043779;28;19925;-66
2024/02/14 07:37:36;;;;;;;;;;;;;;;;;;5040371;28;19978;-66
2024/02/14 07:40:02;;;;;;;;;;;;;;;;;;5050624;28;19921;-66
2024/02/14 07:42:28;;;;;;;;;;;;;;;;;;5048938;28;19928;-66
2024/02/14 07:44:56;;;;;;;;;;;;;;;;;;5048026;28;19921;-66
2024/02/14 07:47:21;;;;;;;;;;;;;;;;;;5034905;28;19925;-67
2024/02/14 07:49:47;;;;;;;;;;;;;;;;;;5033596;28;19925;-66
2024/02/14 07:52:13;;;;;;;;;;;;;;;;;;5046693;28;20231;-66
2024/02/14 07:54:39;;;;;;;;;;;;;;;;;;5042042;28;19939;-66
2024/02/14 07:57:05;;;;;;;;;;;;;;;;;;5044661;28;19932;-66
2024/02/14 07:59:31;;;;;;;;;;;;;;;;;;5034147;28;19932;-66
2024/02/14 08:01:57;;;;;;;;;;;;;;;;;;5050122;28;19968;-66
2024/02/14 08:04:23;;;;;;;;;;;;;;;;;;5053813;28;20023;-67
2024/02/14 08:06:49;;;;;;;;;;;;;;;;;;5054225;28;20059;-66
2024/02/14 08:09:15;;;;;;;;;;;;;;;;;;5051427;28;20376;-66
2024/02/14 08:11:41;;;;;;;;;;;;;;;;;;5054162;28;20382;-66
2024/02/14 08:14:07;;;;;;;;;;;;;;;;;;5047908;28;19963;-66
2024/02/14 08:16:33;;;;;;;;;;;;;;;;;;5034612;28;19921;-67
2024/02/14 08:18:58;;;;;;;;;;;;;;;;;;5036851;28;20070;-67
2024/02/14 08:21:25;;;;;;;;;;;;;;;;;;5033459;28;19921;-66
2024/02/14 08:23:51;;;;;;;;;;;;;;;;;;5037169;28;20367;-66
2024/02/14 08:26:17;;;;;;;;;;;;;;;;;;5047512;28;19924;-66
2024/02/14 08:28:43;;;;;;;;;;;;;;;;;;5040568;28;19925;-66
2024/02/14 08:31:09;;;;;;;;;;;;;;;;;;5045353;28;19929;-66
2024/02/14 08:33:35;;;;;;;;;;;;;;;;;;5049279;28;20043;-66
2024/02/14 08:36:01;;;;;;;;;;;;;;;;;;5048811;28;19925;-67
2024/02/14 08:38:27;;;;;;;;;;;;;;;;;;5040530;28;19992;-66
2024/02/14 08:40:52;;;;;;;;;;;;;;;;;;5046009;28;19931;-66
2024/02/14 08:43:18;;;;;;;;;;;;;;;;;;5041831;28;20645;-66
2024/02/14 08:45:44;;;;;;;;;;;;;;;;;;5044012;28;19925;-67
2024/02/14 08:48:10;;;;;;;;;;;;;;;;;;5039954;28;19935;-66
2024/02/14 08:50:36;;;;;;;;;;;;;;;;;;5040810;28;19944;-66
2024/02/14 08:53:02;;;;;;;;;;;;;;;;;;5047780;28;20688;-66
2024/02/14 08:55:29;;;;;;;;;;;;;;;;;;5041562;28;19936;-67
2024/02/14 08:57:55;;;;;;;;;;;;;;;;;;5038800;28;19925;-66
2024/02/14 09:00:21;;;;;;;;;;;;;;;;;;5051756;28;19955;-65
2024/02/14 09:02:47;;;;;;;;;;;;;;;;;;5050763;28;19959;-67
2024/02/14 09:05:13;;;;;;;;;;;;;;;;;;5044134;28;20359;-66
2024/02/14 09:07:41;;;;;;;;;;;;;;;;;;5051514;28;19973;-66
2024/02/14 09:10:07;;;;;;;;;;;;;;;;;;5039932;28;19999;-66
2024/02/14 09:12:33;;;;;;;;;;;;;;;;;;5050266;28;19925;-66
2024/02/14 09:14:59;;;;;;;;;;;;;;;;;;5047288;28;19921;-66
2024/02/14 09:17:25;;;;;;;;;;;;;;;;;;5051743;28;20623;-66
2024/02/14 09:19:51;;;;;;;;;;;;;;;;;;5037507;28;19921;-66
2024/02/14 09:22:21;;;;;;;;;;;;;;;;;;5041933;28;19925;-66
2024/02/14 09:24:47;;;;;;;;;;;;;;;;;;5044776;28;20830;-66
2024/02/14 09:27:12;;;;;;;;;;;;;;;;;;5038686;28;19929;-66
2024/02/14 09:29:38;;;;;;;;;;;;;;;;;;5031510;28;19987;-66
2024/02/14 09:32:04;;;;;;;;;;;;;;;;;;5039140;28;19974;-66
2024/02/14 09:34:30;;;;;;;;;;;;;;;;;;5048842;28;19921;-65
2024/02/14 09:36:58;;;;;;;;;;;;;;;;;;5045609;28;20007;-66
2024/02/14 09:39:24;;;;;;;;;;;;;;;;;;5038491;28;20011;-66
2024/02/14 09:41:50;;;;;;;;;;;;;;;;;;5025234;28;20036;-66
2024/02/14 09:44:16;;;;;;;;;;;;;;;;;;5029422;28;19920;-65
2024/02/14 09:46:42;;;;;;;;;;;;;;;;;;5036815;28;19970;-66
2024/02/14 09:49:08;;;;;;;;;;;;;;;;;;5049569;28;19925;-66
2024/02/14 09:51:34;;;;;;;;;;;;;;;;;;5047270;28;19928;-65
2024/02/14 09:54:03;;;;;;;;;;;;;;;;;;5039887;28;20039;-65
2024/02/14 09:56:29;;;;;;;;;;;;;;;;;;5048528;28;19925;-65
2024/02/14 09:58:56;;;;;;;;;;;;;;;;;;5044222;28;20315;-65
2024/02/14 10:01:23;;;;;;;;;;;;;;;;;;5046861;28;19979;-67
2024/02/14 10:03:49;;;;;;;;;;;;;;;;;;5044175;28;20392;-65
2024/02/14 10:06:15;;;;;;;;;;;;;;;;;;5040128;28;20047;-66
2024/02/14 10:08:41;;;;;;;;;;;;;;;;;;5049677;28;20385;-65
2024/02/14 10:11:07;;;;;;;;;;;;;;;;;;5034108;22;19930;-62
2024/02/14 10:13:34;;;;;;;;;;;;;;;;;;5007803;28;19933;-62
2024/02/14 10:16:00;;;;;;;;;;;;;;;;;;5007637;28;19968;-62
2024/02/14 10:18:26;;;;;;;;;;;;;;;;;;4998931;28;19965;-62
2024/02/14 10:20:52;;;;;;;;;;;;;;;;;;5012271;28;19925;-61
2024/02/14 10:23:19;;;;;;;;;;;;;;;;;;5012321;28;19921;-61
2024/02/14 10:25:45;;;;;;;;;;;;;;;;;;5007869;28;19925;-61
2024/02/14 10:28:11;;;;;;;;;;;;;;;;;;5011919;28;19979;-61
2024/02/14 10:30:41;;;;;;;;;;;;;;;;;;5011738;28;19936;-61
2024/02/14 10:33:07;;;;;;;;;;;;;;;;;;5010641;28;19921;-61
2024/02/14 10:35:33;;;;;;;;;;;;;;;;;;5009635;28;19929;-61
2024/02/14 10:38:01;;;;;;;;;;;;;;;;;;4994729;28;19925;-61
2024/02/14 10:40:27;;;;;;;;;;;;;;;;;;5009542;28;19929;-61
2024/02/14 10:42:54;;;;;;;;;;;;;;;;;;5012286;28;19921;-61
2024/02/14 10:45:20;;;;;;;;;;;;;;;;;;5011893;28;19921;-61
2024/02/14 10:47:48;;;;;;;;;;;;;;;;;;5011735;28;20450;-61
2024/02/14 10:50:14;;;;;;;;;;;;;;;;;;5012036;28;19926;-61
2024/02/14 10:52:40;;;;;;;;;;;;;;;;;;5015373;28;19922;-61
2024/02/14 10:55:06;;;;;;;;;;;;;;;;;;5013153;28;19921;-61
2024/02/14 10:57:32;;;;;;;;;;;;;;;;;;5014976;28;19925;-61
2024/02/14 10:59:58;;;;;;;;;;;;;;;;;;5014390;28;19928;-61
2024/02/14 11:02:24;;;;;;;;;;;;;;;;;;5015874;28;19976;-61
2024/02/14 11:04:53;;;;;;;;;;;;;;;;;;5014249;28;19932;-61
2024/02/14 11:07:19;;;;;;;;;;;;;;;;;;5015498;28;20012;-61
2024/02/14 11:09:45;;;;;;;;;;;;;;;;;;5015739;28;20021;-61
2024/02/14 11:12:10;;;;;;;;;;;;;;;;;;5013447;28;20032;-61
2024/02/14 11:14:38;;;;;;;;;;;;;;;;;;5015808;28;19925;-61
2024/02/14 11:17:04;;;;;;;;;;;;;;;;;;4997817;28;19944;-61
2024/02/14 11:19:30;;;;;;;;;;;;;;;;;;5014112;28;19921;-61
2024/02/14 11:21:56;;;;;;;;;;;;;;;;;;5015508;28;20012;-61
2024/02/14 11:24:22;;;;;;;;;;;;;;;;;;5015657;28;19922;-61
2024/02/14 11:26:48;;;;;;;;;;;;;;;;;;5012695;28;19934;-61
2024/02/14 11:29:16;;;;;;;;;;;;;;;;;;4997841;28;19971;-61
2024/02/14 11:31:43;;;;;;;;;;;;;;;;;;5015237;28;20334;-61
2024/02/14 11:34:10;;;;;;;;;;;;;;;;;;5011705;28;19925;-61
2024/02/14 11:36:36;;;;;;;;;;;;;;;;;;5013954;28;20591;-61
2024/02/14 11:39:02;;;;;;;;;;;;;;;;;;5013144;28;20008;-61
2024/02/14 11:41:28;;;;;;;;;;;;;;;;;;5014602;28;20008;-62
2024/02/14 11:43:54;;;;;;;;;;;;;;;;;;5014289;28;20084;-62
2024/02/14 11:46:20;;;;;;;;;;;;;;;;;;5009707;28;20450;-62
2024/02/14 11:48:46;;;;;;;;;;;;;;;;;;5004880;28;19929;-62
2024/02/14 11:51:12;;;;;;;;;;;;;;;;;;5005686;28;19921;-62
2024/02/14 11:53:38;;;;;;;;;;;;;;;;;;5013519;28;19925;-61
2024/02/14 11:56:04;;;;;;;;;;;;;;;;;;5012696;28;20343;-61
2024/02/14 11:58:31;;;;;;;;;;;;;;;;;;5013571;28;20280;-62
2024/02/14 12:00:57;;;;;;;;;;;;;;;;;;5013520;28;19925;-62
2024/02/14 12:03:23;;;;;;;;;;;;;;;;;;5012413;28;19922;-62
2024/02/14 12:05:50;;;;;;;;;;;;;;;;;;5006007;28;20004;-62
2024/02/14 12:08:16;;;;;;;;;;;;;;;;;;5009464;28;19925;-62
2024/02/14 12:10:42;;;;;;;;;;;;;;;;;;5012141;28;19929;-63
2024/02/14 12:13:08;;;;;;;;;;;;;;;;;;5015417;28;20402;-62
2024/02/14 12:15:34;;;;;;;;;;;;;;;;;;5015882;28;19928;-62
2024/02/14 12:18:00;;;;;;;;;;;;;;;;;;5026480;28;19975;-63
2024/02/14 12:20:26;;;;;;;;;;;;;;;;;;5033094;28;19933;-63
2024/02/14 12:22:53;;;;;;;;;;;;;;;;;;5027782;28;19922;-63
2024/02/14 12:25:19;;;;;;;;;;;;;;;;;;5012740;28;19929;-63
2024/02/14 12:27:45;;;;;;;;;;;;;;;;;;5013938;28;20402;-63
2024/02/14 12:30:11;;;;;;;;;;;;;;;;;;5012197;28;19922;-63
2024/02/14 12:32:37;;;;;;;;;;;;;;;;;;5009261;28;19922;-63
2024/02/14 12:35:03;;;;;;;;;;;;;;;;;;5024382;28;19921;-63
2024/02/14 12:37:29;;;;;;;;;;;;;;;;;;5017071;28;19925;-63
2024/02/14 12:39:56;;;;;;;;;;;;;;;;;;5014607;28;20543;-63
2024/02/14 12:42:25;;;;;;;;;;;;;;;;;;5012631;28;20286;-63
2024/02/14 12:44:51;;;;;;;;;;;;;;;;;;5024847;28;19932;-63
2024/02/14 12:47:18;;;;;;;;;;;;;;;;;;5013640;28;19977;-63
2024/02/14 12:49:44;;;;;;;;;;;;;;;;;;5014080;28;19932;-63
2024/02/14 12:52:11;;;;;;;;;;;;;;;;;;5014058;28;19925;-63
2024/02/14 12:54:37;;;;;;;;;;;;;;;;;;5013896;28;20052;-63
2024/02/14 12:57:03;;;;;;;;;;;;;;;;;;5010009;28;20012;-63
2024/02/14 12:59:29;;;;;;;;;;;;;;;;;;5013800;28;19922;-63
2024/02/14 13:01:55;;;;;;;;;;;;;;;;;;5013042;28;19928;-63
2024/02/14 13:04:21;;;;;;;;;;;;;;;;;;5011383;28;19930;-63
2024/02/14 13:06:47;;;;;;;;;;;;;;;;;;5012476;28;19925;-63
2024/02/14 13:09:14;;;;;;;;;;;;;;;;;;5013243;28;19928;-63
2024/02/14 13:11:41;;;;;;;;;;;;;;;;;;5012136;28;20189;-63
2024/02/14 13:14:07;;;;;;;;;;;;;;;;;;5008337;28;19921;-63
2024/02/14 13:16:33;;;;;;;;;;;;;;;;;;5012665;28;19932;-63
2024/02/14 13:18:59;;;;;;;;;;;;;;;;;;5013045;28;19921;-63
2024/02/14 13:21:24;;;;;;;;;;;;;;;;;;5012292;28;19929;-63
2024/02/14 13:23:50;;;;;;;;;;;;;;;;;;5012604;28;19929;-63
2024/02/14 13:26:16;;;;;;;;;;;;;;;;;;5012815;28;19925;-61
2024/02/14 13:28:42;;;;;;;;;;;;;;;;;;5009653;28;19925;-62
2024/02/14 13:31:10;;;;;;;;;;;;;;;;;;5010701;28;19975;-62
2024/02/14 13:33:36;;;;;;;;;;;;;;;;;;5009841;28;19941;-62
2024/02/14 13:36:02;;;;;;;;;;;;;;;;;;5010995;28;19928;-62
2024/02/14 13:38:28;;;;;;;;;;;;;;;;;;5012229;28;19925;-62
2024/02/14 13:40:54;;;;;;;;;;;;;;;;;;5012467;28;19921;-62
2024/02/14 13:43:20;;;;;;;;;;;;;;;;;;5010915;28;19931;-62
2024/02/14 13:45:47;;;;;;;;;;;;;;;;;;5012658;28;19956;-62
2024/02/14 13:48:13;;;;;;;;;;;;;;;;;;5010282;28;19925;-62
2024/02/14 13:50:39;;;;;;;;;;;;;;;;;;5012986;28;19929;-62
2024/02/14 13:53:05;;;;;;;;;;;;;;;;;;5012826;28;19925;-62
2024/02/14 13:55:31;;;;;;;;;;;;;;;;;;5012231;28;20350;-62
2024/02/14 13:57:57;;;;;;;;;;;;;;;;;;5012635;28;19932;-62
2024/02/14 14:00:23;;;;;;;;;;;;;;;;;;4994470;28;19925;-62
2024/02/14 14:02:49;;;;;;;;;;;;;;;;;;4998162;28;19922;-62
2024/02/14 14:05:15;;;;;;;;;;;;;;;;;;5010882;28;19925;-63
2024/02/14 14:07:41;;;;;;;;;;;;;;;;;;5011158;28;20580;-63
2024/02/14 14:10:07;;;;;;;;;;;;;;;;;;5012371;28;19929;-63
2024/02/14 14:12:33;;;;;;;;;;;;;;;;;;5012167;28;20315;-63
2024/02/14 14:14:59;;;;;;;;;;;;;;;;;;5010807;28;19976;-61
2024/02/14 14:17:26;;;;;;;;;;;;;;;;;;5012540;28;20061;-62
2024/02/14 14:19:51;;;;;;;;;;;;;;;;;;5008422;28;20373;-63
2024/02/14 14:22:17;;;;;;;;;;;;;;;;;;5010885;28;20012;-62
2024/02/14 14:24:44;;;;;;;;;;;;;;;;;;5012056;28;20660;-62
2024/02/14 14:27:13;;;;;;;;;;;;;;;;;;5011761;28;20279;-62
2024/02/14 14:29:41;;;;;;;;;;;;;;;;;;5011793;28;20004;-63
2024/02/14 14:32:07;;;;;;;;;;;;;;;;;;5011329;28;19927;-63
2024/02/14 14:34:33;;;;;;;;;;;;;;;;;;5011054;28;19921;-63
2024/02/14 14:36:58;;;;;;;;;;;;;;;;;;5010293;28;19925;-63
2024/02/14 14:39:24;;;;;;;;;;;;;;;;;;5009985;28;19921;-63
2024/02/14 14:41:53;;;;;;;;;;;;;;;;;;5011758;28;19922;-63
2024/02/14 14:44:19;;;;;;;;;;;;;;;;;;5010047;28;19922;-63
2024/02/14 14:46:45;;;;;;;;;;;;;;;;;;5009335;28;19944;-63
2024/02/14 14:49:10;;;;;;;;;;;;;;;;;;5009928;28;19929;-63
2024/02/14 14:51:38;;;;;;;;;;;;;;;;;;5008931;28;19976;-63
2024/02/14 14:54:04;;;;;;;;;;;;;;;;;;5008694;28;19925;-63
2024/02/14 14:56:30;;;;;;;;;;;;;;;;;;5011682;28;20450;-63
2024/02/14 14:58:59;;;;;;;;;;;;;;;;;;5007111;28;20006;-63
2024/02/14 15:01:25;;;;;;;;;;;;;;;;;;5009565;28;20414;-63
2024/02/14 15:03:52;;;;;;;;;;;;;;;;;;5022743;28;20004;-63
2024/02/14 15:06:18;;;;;;;;;;;;;;;;;;5007233;28;19922;-63
2024/02/14 15:08:45;;;;;;;;;;;;;;;;;;5008849;28;19937;-63
2024/02/14 15:11:14;;;;;;;;;;;;;;;;;;5022689;28;19980;-62
2024/02/14 15:13:40;;;;;;;;;;;;;;;;;;5001280;28;19925;-63
2024/02/14 15:16:07;;;;;;;;;;;;;;;;;;5011563;28;19921;-63
2024/02/14 15:18:33;;;;;;;;;;;;;;;;;;5011295;28;20387;-62
2024/02/14 15:20:59;;;;;;;;;;;;;;;;;;5009218;28;20263;-62
2024/02/14 15:23:25;;;;;;;;;;;;;;;;;;5011906;28;19925;-62
2024/02/14 15:25:51;;;;;;;;;;;;;;;;;;5009978;28;19921;-62
2024/02/14 15:28:21;;;;;;;;;;;;;;;;;;5011668;28;19936;-62
2024/02/14 15:33:32;;;;;;;;;;;;;;;;;;5011543;28;20020;-62
2024/02/14 15:35:59;;;;;;;;;;;;;;;;;;4997645;28;20019;-62
2024/02/14 15:38:25;;;;;;;;;;;;;;;;;;5008493;28;20008;-62
2024/02/14 15:40:57;;;;;;;;;;;;;;;;;;5015551;28;20447;-62
2024/02/14 15:43:22;;;;;;;;;;;;;;;;;;5003154;28;19944;-62
2024/02/14 15:45:48;;;;;;;;;;;;;;;;;;5020624;28;20373;-61
2024/02/14 15:48:19;;;;;;;;;;;;;;;;;;5013946;28;19929;-62
2024/02/14 15:50:45;;;;;;;;;;;;;;;;;;5026391;28;20390;-62
2024/02/14 15:53:11;;;;;;;;;;;;;;;;;;5015176;28;19926;-62
2024/02/14 15:55:37;;;;;;;;;;;;;;;;;;5020417;28;19925;-62
2024/02/14 15:58:03;;;;;;;;;;;;;;;;;;5000763;28;19928;-61
2024/02/14 16:00:32;;;;;;;;;;;;;;;;;;5011924;28;19941;-62
2024/02/14 16:02:59;;;;;;;;;;;;;;;;;;5006761;28;20008;-62
2024/02/14 16:05:25;;;;;;;;;;;;;;;;;;5002646;28;19925;-62
2024/02/14 16:07:51;;;;;;;;;;;;;;;;;;4991736;28;20012;-61
2024/02/14 16:10:17;;;;;;;;;;;;;;;;;;5011174;28;20306;-62
2024/02/14 16:12:44;;;;;;;;;;;;;;;;;;5014234;28;19975;-62
2024/02/14 16:15:10;;;;;;;;;;;;;;;;;;5010219;28;19929;-62
2024/02/14 16:17:36;;;;;;;;;;;;;;;;;;5017375;28;20008;-62
2024/02/14 16:20:02;;;;;;;;;;;;;;;;;;5013741;28;19929;-62
2024/02/14 16:22:27;;;;;;;;;;;;;;;;;;5010076;28;19957;-62
2024/02/14 16:24:53;;;;;;;;;;;;;;;;;;5011081;28;19960;-62
2024/02/14 16:27:19;;;;;;;;;;;;;;;;;;5010898;28;19933;-62
2024/02/14 16:29:45;;;;;;;;;;;;;;;;;;5009061;28;19929;-62
2024/02/14 16:32:11;;;;;;;;;;;;;;;;;;5004639;28;19933;-62
2024/02/14 16:34:37;;;;;;;;;;;;;;;;;;5009810;28;19971;-62
2024/02/14 16:37:03;;;;;;;;;;;;;;;;;;5011227;28;19964;-62
2024/02/14 16:39:29;;;;;;;;;;;;;;;;;;5006298;28;20416;-62
2024/02/14 16:41:55;;;;;;;;;;;;;;;;;;5010529;28;19925;-62